Decoded Metar for KPBH (PHILLIPS/PRICE in WI, USA) (IATA:PBH) | Meteo·Mobile Aviation Weather
aviador You're here:

KPBH Decoded Metar

PHILLIPS/PRICE in WI, USA
Report Time2018-10-18 09:35:00
UTC Time2018-10-18 09:39:25
Flight Rules vfr VFR
WindCalm
Visibility9999 m
Phenomena:N/A
Clouds:N/A
Expected CloudBase > 1,200 ft AGL from Temp-Dew spread
CeilingNone
Temp-5°C (ISA -17)
Dew Point-8°C (80% RH)
AAT-7.9°C
QNH1029 hPa
Density Alt-1,122 ft
Elevation1,473 ft
Report Wrong Elevation
Raw Report
KPBH 180935Z AUTO 00000KT 10SM CLR M05/M08 A3038 RMK AO2
T10481079=

Extra information for KPBH:More info

Metar Taf Metar & Taf Last 4 Metars F.Rules Stats Wind Profile Meteogram Temp Stats Airport Information Weather charts Add Link Nearby VenuesMetar ALERT Operation Metar Decoded Social comments

AIRNAV info for KPBH